createdAt,value
2023-05-03T00:00:22.472Z,963.4908
2023-05-03T00:01:23.584Z,963.5162
2023-05-03T00:02:24.797Z,963.5054
2023-05-03T00:03:25.796Z,963.4969
2023-05-03T00:04:26.860Z,963.4300
2023-05-03T00:05:28.000Z,963.4308
2023-05-03T00:06:29.144Z,963.4615
2023-05-03T00:07:30.123Z,963.4923
2023-05-03T00:08:31.209Z,963.4869
2023-05-03T00:09:32.303Z,963.4631
2023-05-03T00:10:33.393Z,963.4161
2023-05-03T00:11:34.507Z,963.3770
2023-05-03T00:12:35.581Z,963.3877
2023-05-03T00:13:36.718Z,963.4515
2023-05-03T00:14:37.781Z,963.4869
2023-05-03T00:15:38.822Z,963.4930
2023-05-03T00:16:39.931Z,963.4800
2023-05-03T00:17:41.071Z,963.4431
2023-05-03T00:18:42.116Z,963.4470
2023-05-03T00:19:43.213Z,963.4639
2023-05-03T00:20:44.284Z,963.4800
2023-05-03T00:21:45.389Z,963.4646
2023-05-03T00:22:46.465Z,963.4562
2023-05-03T00:23:47.577Z,963.3984
2023-05-03T00:24:48.721Z,963.3646
2023-05-03T00:25:49.759Z,963.3877
2023-05-03T00:26:50.842Z,963.4308
2023-05-03T00:27:51.932Z,963.4462
2023-05-03T00:28:53.045Z,963.4446
2023-05-03T00:29:54.116Z,963.4370
2023-05-03T00:30:55.260Z,963.3754
2023-05-03T00:31:56.327Z,963.3677
2023-05-03T00:32:57.463Z,963.3977
2023-05-03T00:33:58.502Z,963.4230
2023-05-03T00:34:59.600Z,963.4215
2023-05-03T00:36:00.725Z,963.4008
2023-05-03T00:37:01.860Z,963.3531
2023-05-03T00:38:02.955Z,963.3315
2023-05-03T00:39:04.054Z,963.3546
2023-05-03T00:40:05.446Z,963.3708
2023-05-03T00:41:06.264Z,963.3638
2023-05-03T00:42:07.332Z,963.3677
2023-05-03T00:43:08.429Z,963.3423
2023-05-03T00:44:09.519Z,963.2900
2023-05-03T00:45:10.625Z,963.3069
2023-05-03T00:46:17.283Z,963.3300
2023-05-03T00:47:13.833Z,963.3354
2023-05-03T00:48:13.885Z,963.3323
2023-05-03T00:49:14.976Z,963.3223
2023-05-03T00:50:16.126Z,963.2816
2023-05-03T00:51:17.162Z,963.2662
2023-05-03T00:52:18.276Z,963.3015
2023-05-03T00:53:19.386Z,963.3262
2023-05-03T00:54:20.499Z,963.3292
2023-05-03T00:55:21.585Z,963.3246
2023-05-03T00:56:22.654Z,963.2908
2023-05-03T00:57:23.757Z,963.2546
2023-05-03T00:58:24.849Z,963.2762
2023-05-03T00:59:25.940Z,963.2953
2023-05-03T01:00:27.058Z,963.2846
2023-05-03T01:01:28.154Z,963.3023
2023-05-03T01:02:29.317Z,963.2739
2023-05-03T01:03:30.388Z,963.2354
2023-05-03T01:04:31.399Z,963.2438
2023-05-03T01:05:32.478Z,963.2708
2023-05-03T01:06:33.626Z,963.2769
2023-05-03T01:07:34.673Z,963.2723
2023-05-03T01:08:35.790Z,963.2654
2023-05-03T01:09:36.855Z,963.2277
2023-05-03T01:10:37.954Z,963.2177
2023-05-03T01:11:39.041Z,963.2300
2023-05-03T01:12:40.135Z,963.2323
2023-05-03T01:13:41.218Z,963.2361
2023-05-03T01:14:42.308Z,963.2315
2023-05-03T01:15:43.449Z,963.2015
2023-05-03T01:16:44.685Z,963.1838
2023-05-03T01:17:45.632Z,963.2015
2023-05-03T01:18:46.669Z,963.2123
2023-05-03T01:19:47.765Z,963.2246
2023-05-03T01:20:48.977Z,963.2308
2023-05-03T01:21:49.948Z,963.1931
2023-05-03T01:22:51.061Z,963.1485
2023-05-03T01:23:52.144Z,963.1592
2023-05-03T01:24:53.234Z,963.1823
2023-05-03T01:25:54.371Z,963.1761
2023-05-03T01:26:55.410Z,963.2015
2023-05-03T01:27:56.517Z,963.1746
2023-05-03T01:28:57.601Z,963.1415
2023-05-03T01:29:58.700Z,963.1077
2023-05-03T01:30:59.814Z,963.1215
2023-05-03T01:32:01.005Z,963.0992
2023-05-03T01:33:02.022Z,963.1192
2023-05-03T01:34:03.079Z,963.1285
2023-05-03T01:35:04.140Z,963.0931
2023-05-03T01:36:05.284Z,963.0754
2023-05-03T01:37:06.349Z,963.0854
2023-05-03T01:38:07.448Z,963.0777
2023-05-03T01:39:08.541Z,963.1123
2023-05-03T01:40:09.621Z,963.1346
2023-05-03T01:41:10.733Z,963.1000
2023-05-03T01:42:11.799Z,963.0623
2023-05-03T01:43:12.895Z,963.0508
2023-05-03T01:44:13.989Z,963.0731
2023-05-03T01:45:15.091Z,963.0646
2023-05-03T01:46:16.239Z,963.0946
2023-05-03T01:47:17.282Z,963.0969
2023-05-03T01:48:18.381Z,963.0461
2023-05-03T01:49:19.459Z,963.0100
2023-05-03T01:50:20.561Z,963.0108
2023-05-03T01:51:21.690Z,963.0085
2023-05-03T01:52:22.754Z,963.0200
2023-05-03T01:53:23.836Z,963.0331
2023-05-03T01:54:24.954Z,963.0031
2023-05-03T01:55:26.017Z,962.9754
2023-05-03T01:56:27.146Z,962.9677
2023-05-03T01:57:28.222Z,962.9654
2023-05-03T01:58:29.294Z,962.9938
2023-05-03T01:59:30.389Z,963.0377
2023-05-03T02:00:31.470Z,963.0423
2023-05-03T02:01:32.614Z,962.9946
2023-05-03T02:02:33.709Z,962.9661
2023-05-03T02:03:34.770Z,962.9654
2023-05-03T02:04:35.875Z,962.9815
2023-05-03T02:05:44.457Z,963.0123
2023-05-03T02:06:38.120Z,963.0342
2023-05-03T02:07:39.133Z,962.9915
2023-05-03T02:08:40.232Z,962.9547
2023-05-03T02:09:41.310Z,962.9569
2023-05-03T02:10:49.947Z,962.9608
2023-05-03T02:11:43.508Z,962.9941
2023-05-03T02:12:44.578Z,963.0269
2023-05-03T02:13:45.700Z,963.0354
2023-05-03T02:14:46.777Z,963.0070
2023-05-03T02:15:47.885Z,963.0100
2023-05-03T02:16:49.025Z,963.0262
2023-05-03T02:17:50.098Z,963.0431
2023-05-03T02:18:51.134Z,963.0800
2023-05-03T02:19:52.302Z,963.0900
2023-05-03T02:20:53.343Z,963.0485
2023-05-03T02:21:54.416Z,963.0269
2023-05-03T02:22:55.473Z,963.0431
2023-05-03T02:23:56.583Z,963.0469
2023-05-03T02:24:57.656Z,963.0846
2023-05-03T02:25:58.757Z,963.1092
2023-05-03T02:26:59.862Z,963.0739
2023-05-03T02:28:00.971Z,963.0262
2023-05-03T02:29:02.041Z,963.0131
2023-05-03T02:30:03.361Z,963.0185
2023-05-03T02:31:04.237Z,963.0162
2023-05-03T02:32:05.322Z,963.0431
2023-05-03T02:33:06.406Z,963.0453
2023-05-03T02:34:07.487Z,963.0038
2023-05-03T02:35:08.577Z,962.9923
2023-05-03T02:36:09.685Z,963.0185
2023-05-03T02:37:10.771Z,963.0108
2023-05-03T02:38:11.862Z,963.0346
2023-05-03T02:39:12.957Z,963.0485
2023-05-03T02:40:14.021Z,963.0023
2023-05-03T02:41:15.126Z,962.9892
2023-05-03T02:42:16.243Z,962.9792
2023-05-03T02:43:17.334Z,962.9915
2023-05-03T02:44:18.402Z,963.0300
2023-05-03T02:45:19.487Z,963.0577
2023-05-03T02:46:20.624Z,963.0346
2023-05-03T02:47:21.688Z,962.9962
2023-05-03T02:48:22.760Z,962.9846
2023-05-03T02:49:23.870Z,962.9992
2023-05-03T02:50:24.954Z,963.0054
2023-05-03T02:51:26.040Z,963.0354
2023-05-03T02:52:27.129Z,963.0469
2023-05-03T02:53:28.244Z,963.0108
2023-05-03T02:54:29.303Z,962.9677
2023-05-03T02:55:30.386Z,962.9738
2023-05-03T02:56:31.501Z,962.9531
2023-05-03T02:57:32.568Z,962.9846
2023-05-03T02:58:33.645Z,962.9885
2023-05-03T02:59:34.737Z,962.9631
2023-05-03T03:00:35.846Z,962.8915
2023-05-03T03:01:36.971Z,962.8553
2023-05-03T03:02:38.098Z,962.8569
2023-05-03T03:03:39.158Z,962.8730
2023-05-03T03:04:40.184Z,962.9100
2023-05-03T03:05:41.265Z,962.9385
2023-05-03T03:06:42.399Z,962.9161
2023-05-03T03:07:43.447Z,962.9046
2023-05-03T03:08:44.530Z,962.9131
2023-05-03T03:09:45.614Z,962.9153
2023-05-03T03:10:46.718Z,962.9362
2023-05-03T03:11:47.793Z,962.9523
2023-05-03T03:12:48.939Z,962.9261
2023-05-03T03:13:49.987Z,962.8892
2023-05-03T03:14:51.073Z,962.8730
2023-05-03T03:15:52.222Z,962.8746
2023-05-03T03:16:53.260Z,962.9054
2023-05-03T03:17:54.376Z,962.9285
2023-05-03T03:18:55.437Z,962.9185
2023-05-03T03:19:56.499Z,962.8692
2023-05-03T03:20:57.599Z,962.8508
2023-05-03T03:21:58.754Z,962.8392
2023-05-03T03:22:59.820Z,962.8592
2023-05-03T03:24:00.867Z,962.9046
2023-05-03T03:25:01.955Z,962.9254
2023-05-03T03:26:03.069Z,962.8984
2023-05-03T03:27:04.134Z,962.8638
2023-05-03T03:28:05.266Z,962.8708
2023-05-03T03:29:06.332Z,962.8923
2023-05-03T03:30:07.403Z,962.9231
2023-05-03T03:31:08.505Z,962.9569
2023-05-03T03:32:09.587Z,962.9700
2023-05-03T03:33:10.738Z,962.9261
2023-05-03T03:34:11.762Z,962.9223
2023-05-03T03:35:12.857Z,962.9315
2023-05-03T03:36:13.954Z,962.9354
2023-05-03T03:37:15.027Z,962.9554
2023-05-03T03:38:16.131Z,962.9615
2023-05-03T03:39:17.261Z,962.9346
2023-05-03T03:40:18.331Z,962.9185
2023-05-03T03:41:19.389Z,962.9146
2023-05-03T03:42:20.932Z,962.9338
2023-05-03T03:43:21.579Z,962.9669
2023-05-03T03:44:22.673Z,962.9923
2023-05-03T03:45:23.786Z,962.9500
2023-05-03T03:46:24.896Z,962.9046
2023-05-03T03:47:26.070Z,962.8954
2023-05-03T03:48:27.045Z,962.9046
2023-05-03T03:49:28.138Z,962.9254
2023-05-03T03:50:29.245Z,962.9500
2023-05-03T03:51:30.321Z,962.9415
2023-05-03T03:52:38.939Z,962.9000
2023-05-03T03:53:40.204Z,962.8942
2023-05-03T03:54:42.081Z,962.8950
2023-05-03T03:55:34.661Z,962.9166
2023-05-03T03:56:35.759Z,962.9323
2023-05-03T03:57:44.380Z,962.9570
2023-05-03T03:58:45.234Z,962.8933
2023-05-03T03:59:39.015Z,962.8666
2023-05-03T04:00:40.105Z,962.8685
2023-05-03T04:01:41.291Z,962.8885
2023-05-03T04:02:42.424Z,962.9246
2023-05-03T04:03:43.470Z,962.9362
2023-05-03T04:04:44.504Z,962.8884
2023-05-03T04:05:45.578Z,962.8308
2023-05-03T04:06:46.805Z,962.8262
2023-05-03T04:07:47.757Z,962.8231
2023-05-03T04:08:48.864Z,962.8408
2023-05-03T04:09:49.924Z,962.8738
2023-05-03T04:10:51.018Z,962.8885
2023-05-03T04:11:52.122Z,962.8408
2023-05-03T04:12:53.198Z,962.8231
2023-05-03T04:13:54.297Z,962.8384
2023-05-03T04:14:55.364Z,962.8638
2023-05-03T04:15:56.496Z,962.9008
2023-05-03T04:16:57.601Z,962.9562
2023-05-03T04:17:58.740Z,962.9546
2023-05-03T04:18:59.753Z,962.9315
2023-05-03T04:20:01.143Z,962.9377
2023-05-03T04:21:01.926Z,962.9492
2023-05-03T04:22:03.058Z,962.9785
2023-05-03T04:23:04.111Z,963.0070
2023-05-03T04:24:05.214Z,962.9931
2023-05-03T04:25:06.280Z,962.9200
2023-05-03T04:26:07.542Z,962.8900
2023-05-03T04:27:08.470Z,962.9000
2023-05-03T04:28:09.560Z,962.9116
2023-05-03T04:29:10.648Z,962.9515
2023-05-03T04:30:11.730Z,963.0092
2023-05-03T04:31:12.844Z,962.9861
2023-05-03T04:32:13.946Z,962.9830
2023-05-03T04:33:14.994Z,962.9785
2023-05-03T04:34:16.139Z,962.9962
2023-05-03T04:35:17.192Z,963.0223
2023-05-03T04:36:18.292Z,963.0461
2023-05-03T04:37:19.439Z,963.0131
2023-05-03T04:38:20.575Z,962.9869
2023-05-03T04:39:21.635Z,962.9753
2023-05-03T04:40:22.714Z,962.9869
2023-05-03T04:41:23.805Z,962.9908
2023-05-03T04:42:24.888Z,963.0269
2023-05-03T04:43:25.976Z,963.0446
2023-05-03T04:44:27.087Z,963.0177
2023-05-03T04:45:28.176Z,963.0139
2023-05-03T04:46:29.291Z,963.0385
2023-05-03T04:47:30.367Z,963.0585
2023-05-03T04:48:31.419Z,963.0854
2023-05-03T04:49:32.548Z,963.1262
2023-05-03T04:50:33.590Z,963.1246
2023-05-03T04:51:34.689Z,963.1053
2023-05-03T04:52:35.782Z,963.1185
2023-05-03T04:53:36.879Z,963.1508
2023-05-03T04:54:37.997Z,963.1693
2023-05-03T04:55:39.042Z,963.2108
2023-05-03T04:56:40.132Z,963.2169
2023-05-03T04:57:41.251Z,963.1962
2023-05-03T04:58:42.320Z,963.1700
2023-05-03T04:59:43.451Z,963.2223
2023-05-03T05:00:44.529Z,963.2700
2023-05-03T05:01:45.687Z,963.2854
2023-05-03T05:02:46.753Z,963.3054
2023-05-03T05:03:47.868Z,963.3030
2023-05-03T05:04:48.898Z,963.2570
2023-05-03T05:05:49.982Z,963.2485
2023-05-03T05:06:51.152Z,963.2993
2023-05-03T05:07:52.166Z,963.3192
2023-05-03T05:08:53.260Z,963.3331
2023-05-03T05:09:54.352Z,963.3385
2023-05-03T05:10:55.448Z,963.3131
2023-05-03T05:11:57.334Z,963.2769
2023-05-03T05:12:57.626Z,963.3023
2023-05-03T05:13:58.750Z,963.3577
2023-05-03T05:14:59.840Z,963.4046
2023-05-03T05:16:00.924Z,963.4146
2023-05-03T05:17:02.058Z,963.4223
2023-05-03T05:18:03.100Z,963.3723
2023-05-03T05:19:04.176Z,963.3808
2023-05-03T05:20:05.428Z,963.4370
2023-05-03T05:21:06.363Z,963.4754
2023-05-03T05:22:07.444Z,963.4954
2023-05-03T05:23:08.546Z,963.4854
2023-05-03T05:24:09.640Z,963.4584
2023-05-03T05:25:10.765Z,963.4215
2023-05-03T05:26:11.851Z,963.4485
2023-05-03T05:27:12.915Z,963.5038
2023-05-03T05:28:14.018Z,963.5400
2023-05-03T05:29:15.103Z,963.5592
2023-05-03T05:30:16.230Z,963.5408
2023-05-03T05:31:17.334Z,963.4938
2023-05-03T05:32:18.381Z,963.5031
2023-05-03T05:33:19.541Z,963.5400
2023-05-03T05:34:20.551Z,963.5762
2023-05-03T05:35:21.686Z,963.6254
2023-05-03T05:36:22.758Z,963.6346
2023-05-03T05:37:23.844Z,963.5869
2023-05-03T05:38:24.927Z,963.5885
2023-05-03T05:39:26.077Z,963.6023
2023-05-03T05:40:27.120Z,963.6346
2023-05-03T05:41:28.184Z,963.6546
2023-05-03T05:42:29.299Z,963.6746
2023-05-03T05:43:30.365Z,963.6016
2023-05-03T05:44:31.458Z,963.5715
2023-05-03T05:45:32.571Z,963.5762
2023-05-03T05:46:33.676Z,963.6000
2023-05-03T05:47:34.783Z,963.6331
2023-05-03T05:48:35.838Z,963.6584
2023-05-03T05:49:36.914Z,963.6093
2023-05-03T05:50:37.993Z,963.5354
2023-05-03T05:51:39.089Z,963.5316
2023-05-03T05:52:40.169Z,963.5600
2023-05-03T05:53:41.311Z,963.5892
2023-05-03T05:54:42.386Z,963.6085
2023-05-03T05:55:43.460Z,963.6108
2023-05-03T05:56:44.554Z,963.5523
2023-05-03T05:57:45.642Z,963.5200
2023-05-03T05:58:46.735Z,963.5369
2023-05-03T05:59:47.800Z,963.5792
2023-05-03T06:00:48.932Z,963.6000
2023-05-03T06:01:50.035Z,963.6192
2023-05-03T06:02:51.131Z,963.5931
2023-05-03T06:03:52.177Z,963.5292
2023-05-03T06:04:53.301Z,963.5239
2023-05-03T06:05:54.381Z,963.5546
2023-05-03T06:06:55.505Z,963.5916
2023-05-03T06:07:56.551Z,963.6131
2023-05-03T06:08:57.617Z,963.6000
2023-05-03T06:09:58.788Z,963.5254
2023-05-03T06:10:59.815Z,963.4908
2023-05-03T06:12:00.907Z,963.5108
2023-05-03T06:13:01.986Z,963.5461
2023-05-03T06:14:03.085Z,963.5623
2023-05-03T06:15:04.186Z,963.5731
2023-05-03T06:16:05.270Z,963.5461
2023-05-03T06:17:06.414Z,963.4838
2023-05-03T06:18:07.481Z,963.4854
2023-05-03T06:19:08.540Z,963.5277
2023-05-03T06:20:09.610Z,963.5492
2023-05-03T06:21:10.721Z,963.5508
2023-05-03T06:22:11.803Z,963.5485
2023-05-03T06:23:12.884Z,963.4923
2023-05-03T06:24:13.974Z,963.4584
2023-05-03T06:25:17.036Z,963.4777
2023-05-03T06:26:16.156Z,963.5208
2023-05-03T06:27:17.219Z,963.5723
2023-05-03T06:28:18.331Z,963.5939
2023-05-03T06:29:19.416Z,963.5908
2023-05-03T06:30:20.531Z,963.5423
2023-05-03T06:31:21.681Z,963.5469
2023-05-03T06:32:22.695Z,963.5908
2023-05-03T06:33:23.783Z,963.6392
2023-05-03T06:34:24.853Z,963.6777
2023-05-03T06:35:25.950Z,963.6870
2023-05-03T06:36:27.055Z,963.6400
2023-05-03T06:37:28.131Z,963.6254
2023-05-03T06:38:29.217Z,963.6500
2023-05-03T06:39:30.318Z,963.6631
2023-05-03T06:40:31.446Z,963.7039
2023-05-03T06:41:32.483Z,963.7338
2023-05-03T06:42:33.579Z,963.6769
2023-05-03T06:43:34.662Z,963.6415
2023-05-03T06:44:35.747Z,963.6785
2023-05-03T06:45:36.843Z,963.7062
2023-05-03T06:46:38.007Z,963.7346
2023-05-03T06:47:39.080Z,963.7546
2023-05-03T06:48:40.183Z,963.7261
2023-05-03T06:49:41.220Z,963.6669
2023-05-03T06:50:42.295Z,963.6723
2023-05-03T06:51:43.396Z,963.7008
2023-05-03T06:52:44.476Z,963.7231
2023-05-03T06:53:45.568Z,963.7500
2023-05-03T06:54:46.667Z,963.7238
2023-05-03T06:55:47.801Z,963.6638
2023-05-03T06:56:48.864Z,963.6270
2023-05-03T06:57:49.920Z,963.6408
2023-05-03T06:58:51.032Z,963.6685
2023-05-03T06:59:52.118Z,963.7015
2023-05-03T07:00:53.187Z,963.7077
2023-05-03T07:01:54.329Z,963.6677
2023-05-03T07:02:55.411Z,963.6054
2023-05-03T07:03:56.565Z,963.5808
2023-05-03T07:04:57.533Z,963.6185
2023-05-03T07:05:58.656Z,963.6508
2023-05-03T07:06:59.871Z,963.6492
2023-05-03T07:08:00.822Z,963.6246
2023-05-03T07:09:01.908Z,963.5615
2023-05-03T07:10:03.237Z,963.5523
2023-05-03T07:11:04.090Z,963.5577
2023-05-03T07:12:05.189Z,963.5815
2023-05-03T07:13:06.295Z,963.6123
2023-05-03T07:14:07.361Z,963.6161
2023-05-03T07:15:08.460Z,963.5615
2023-05-03T07:16:09.545Z,963.5369
2023-05-03T07:17:10.630Z,963.5469
2023-05-03T07:18:11.746Z,963.5715
2023-05-03T07:19:12.799Z,963.6031
2023-05-03T07:20:13.934Z,963.5854
2023-05-03T07:21:14.979Z,963.5500
2023-05-03T07:22:16.058Z,963.4830
2023-05-03T07:23:17.149Z,963.4623
2023-05-03T07:24:18.248Z,963.4769
2023-05-03T07:25:19.404Z,963.4908
2023-05-03T07:26:20.439Z,963.4892
2023-05-03T07:27:21.532Z,963.4769
2023-05-03T07:28:22.615Z,963.4346
2023-05-03T07:29:23.710Z,963.4008
2023-05-03T07:30:24.797Z,963.4385
2023-05-03T07:31:25.891Z,963.4746
2023-05-03T07:32:27.045Z,963.4823
2023-05-03T07:33:28.111Z,963.4592
2023-05-03T07:34:29.167Z,963.4392
2023-05-03T07:35:30.228Z,963.3815
2023-05-03T07:36:31.329Z,963.3854
2023-05-03T07:37:32.420Z,963.4100
2023-05-03T07:38:33.538Z,963.4431
2023-05-03T07:39:34.597Z,963.4539
2023-05-03T07:40:35.696Z,963.4223
2023-05-03T07:41:36.794Z,963.3531
2023-05-03T07:42:37.928Z,963.3439
2023-05-03T07:43:39.007Z,963.3577
2023-05-03T07:44:40.101Z,963.3531
2023-05-03T07:45:41.273Z,963.3331
2023-05-03T07:46:42.251Z,963.3062
2023-05-03T07:47:43.382Z,963.2708
2023-05-03T07:48:44.439Z,963.2223
2023-05-03T07:49:45.542Z,963.2423
2023-05-03T07:50:46.619Z,963.2354
2023-05-03T07:51:47.701Z,963.2477
2023-05-03T07:52:48.805Z,963.2639
2023-05-03T07:53:49.890Z,963.2238
2023-05-03T07:54:50.978Z,963.1616
2023-05-03T07:55:52.063Z,963.1485
2023-05-03T07:56:55.532Z,963.1800
2023-05-03T07:57:54.421Z,963.1723
2023-05-03T07:59:05.131Z,963.1439
2023-05-03T07:59:57.452Z,963.1169
2023-05-03T08:00:57.546Z,963.0638
2023-05-03T08:02:01.340Z,963.0277
2023-05-03T08:02:59.917Z,963.0085
2023-05-03T08:04:01.077Z,962.9962
2023-05-03T08:05:01.998Z,963.0015
2023-05-03T08:06:03.014Z,962.9815
2023-05-03T08:07:04.119Z,962.9377
2023-05-03T08:08:05.168Z,962.8762
2023-05-03T08:09:06.264Z,962.8600
2023-05-03T08:10:07.390Z,962.8631
2023-05-03T08:11:08.468Z,962.8984
2023-05-03T08:12:09.682Z,962.9477
2023-05-03T08:13:10.655Z,962.9131
2023-05-03T08:14:11.743Z,962.9131
2023-05-03T08:15:12.840Z,962.9254
2023-05-03T08:16:13.980Z,962.9446
2023-05-03T08:17:15.011Z,962.9815
2023-05-03T08:18:16.128Z,963.0092
2023-05-03T08:19:17.201Z,962.9831
2023-05-03T08:20:18.307Z,962.9400
2023-05-03T08:21:19.438Z,962.9385
2023-05-03T08:22:20.457Z,962.9377
2023-05-03T08:23:21.570Z,962.9415
2023-05-03T08:24:22.637Z,962.9977
2023-05-03T08:25:23.745Z,963.0123
2023-05-03T08:26:24.825Z,962.9608
2023-05-03T08:27:25.955Z,962.9454
2023-05-03T08:28:27.015Z,962.9400
2023-05-03T08:29:28.106Z,962.9669
2023-05-03T08:30:29.197Z,962.9800
2023-05-03T08:31:30.345Z,962.9692
2023-05-03T08:32:31.419Z,962.9146
2023-05-03T08:33:32.493Z,962.8638
2023-05-03T08:34:33.588Z,962.8477
2023-05-03T08:35:34.683Z,962.8585
2023-05-03T08:36:35.827Z,962.8869
2023-05-03T08:37:36.939Z,962.8992
2023-05-03T08:38:38.047Z,962.8746
2023-05-03T08:39:39.132Z,962.8185
2023-05-03T08:40:40.222Z,962.8062
2023-05-03T08:41:41.341Z,962.8339
2023-05-03T08:42:42.412Z,962.8446
2023-05-03T08:43:43.519Z,962.8839
2023-05-03T08:44:44.604Z,962.9177
2023-05-03T08:45:45.693Z,962.8823
2023-05-03T08:46:46.851Z,962.8654
2023-05-03T08:47:47.951Z,962.8484
2023-05-03T08:48:48.980Z,962.8408
2023-05-03T08:49:50.055Z,962.8561
2023-05-03T08:50:51.155Z,962.8461
2023-05-03T08:51:52.248Z,962.8130
2023-05-03T08:52:53.331Z,962.7731
2023-05-03T08:53:54.436Z,962.7385
2023-05-03T08:54:55.551Z,962.7046
2023-05-03T08:55:56.612Z,962.6792
2023-05-03T08:56:57.705Z,962.6623
2023-05-03T08:57:58.810Z,962.6538
2023-05-03T08:58:59.897Z,962.6485
2023-05-03T09:00:01.188Z,962.6454
2023-05-03T09:01:02.060Z,962.6454
2023-05-03T09:02:03.233Z,962.6630
2023-05-03T09:03:04.301Z,962.6661
2023-05-03T09:04:05.514Z,962.6584
2023-05-03T09:05:06.640Z,962.6539
2023-05-03T09:06:07.573Z,962.6484
2023-05-03T09:07:08.643Z,962.6500
2023-05-03T09:08:09.745Z,962.6654
2023-05-03T09:09:10.886Z,962.6730
2023-05-03T09:10:11.914Z,962.6708
2023-05-03T09:11:13.012Z,962.6808
2023-05-03T09:12:14.106Z,962.6970
2023-05-03T09:13:15.202Z,962.6931
2023-05-03T09:14:16.352Z,962.7008
2023-05-03T09:15:17.394Z,962.7292
2023-05-03T09:16:18.562Z,962.7662
2023-05-03T09:17:19.575Z,962.7500
2023-05-03T09:18:20.713Z,962.7385
2023-05-03T09:19:21.774Z,962.7515
2023-05-03T09:20:22.852Z,962.7469
2023-05-03T09:21:23.941Z,962.7462
2023-05-03T09:22:25.038Z,962.7369
2023-05-03T09:23:26.151Z,962.7592
2023-05-03T09:24:27.255Z,962.7338
2023-05-03T09:25:28.305Z,962.6923
2023-05-03T09:26:29.427Z,962.6800
2023-05-03T09:27:30.500Z,962.7046
2023-05-03T09:28:31.626Z,962.7431
2023-05-03T09:29:32.705Z,962.7900
2023-05-03T09:30:33.783Z,962.8023
2023-05-03T09:31:34.882Z,962.8192
2023-05-03T09:32:35.988Z,962.8100
2023-05-03T09:33:37.067Z,962.8030
2023-05-03T09:34:38.173Z,962.7908
2023-05-03T09:35:39.368Z,962.8307
2023-05-03T09:36:40.759Z,962.8500
2023-05-03T09:37:41.449Z,962.8654
2023-05-03T09:38:42.537Z,962.8262
2023-05-03T09:39:43.645Z,962.7977
2023-05-03T09:40:44.718Z,962.8062
2023-05-03T09:41:45.830Z,962.7985
2023-05-03T09:42:46.909Z,962.7885
2023-05-03T09:43:48.047Z,962.7969
2023-05-03T09:44:49.129Z,962.7900
2023-05-03T09:45:50.203Z,962.7916
2023-05-03T09:46:51.274Z,962.7492
2023-05-03T09:47:52.461Z,962.7292
2023-05-03T09:48:53.451Z,962.7169
2023-05-03T09:49:54.534Z,962.7062
2023-05-03T09:50:55.606Z,962.6915
2023-05-03T09:51:56.712Z,962.6962
2023-05-03T09:52:57.801Z,962.6870
2023-05-03T09:53:58.975Z,962.6761
2023-05-03T09:54:59.994Z,962.6415
2023-05-03T09:56:01.073Z,962.6093
2023-05-03T09:57:02.173Z,962.5746
2023-05-03T09:58:03.245Z,962.5839
2023-05-03T09:59:04.424Z,962.6369
2023-05-03T10:00:05.540Z,962.6915
2023-05-03T10:01:06.836Z,962.7054
2023-05-03T10:02:07.901Z,962.7077
2023-05-03T10:03:08.818Z,962.7269
2023-05-03T10:04:09.868Z,962.7238
2023-05-03T10:05:10.923Z,962.7623
2023-05-03T10:06:12.044Z,962.7600
2023-05-03T10:07:13.106Z,962.7800
2023-05-03T10:08:14.189Z,962.7192
2023-05-03T10:09:15.317Z,962.6131
2023-05-03T10:10:16.388Z,962.5900
2023-05-03T10:11:17.460Z,962.6061
2023-05-03T10:12:18.643Z,962.6508
2023-05-03T10:13:19.644Z,962.6447
2023-05-03T10:14:20.741Z,962.6723
2023-05-03T10:15:22.891Z,962.6823
2023-05-03T10:16:22.907Z,962.6492
2023-05-03T10:17:32.306Z,962.6454
2023-05-03T10:18:26.133Z,962.5939
2023-05-03T10:19:26.201Z,962.5792
2023-05-03T10:20:27.286Z,962.5708
2023-05-03T10:21:28.357Z,962.5492
2023-05-03T10:22:29.455Z,962.5538
2023-05-03T10:23:30.543Z,962.5554
2023-05-03T10:24:31.785Z,962.5223
2023-05-03T10:25:32.877Z,962.5108
2023-05-03T10:26:33.832Z,962.4808
2023-05-03T10:27:34.946Z,962.4585
2023-05-03T10:28:36.011Z,962.4084
2023-05-03T10:29:37.151Z,962.4323
2023-05-03T10:30:38.229Z,962.4507
2023-05-03T10:31:39.370Z,962.4861
2023-05-03T10:32:40.400Z,962.5031
2023-05-03T10:33:41.490Z,962.5169
2023-05-03T10:34:43.425Z,962.4639
2023-05-03T10:35:43.733Z,962.4992
2023-05-03T10:36:49.855Z,962.5285
2023-05-03T10:37:46.862Z,962.5416
2023-05-03T10:38:47.028Z,962.5677
2023-05-03T10:39:48.063Z,962.5523
2023-05-03T10:40:49.160Z,962.4739
2023-05-03T10:41:50.235Z,962.4277
2023-05-03T10:42:51.342Z,962.4169
2023-05-03T10:43:52.449Z,962.4115
2023-05-03T10:44:53.520Z,962.3870
2023-05-03T10:45:54.646Z,962.3862
2023-05-03T10:46:55.769Z,962.4084
2023-05-03T10:47:56.889Z,962.4277
2023-05-03T10:48:57.917Z,962.4223
2023-05-03T10:49:59.004Z,962.4123
2023-05-03T10:51:00.092Z,962.3823
2023-05-03T10:52:01.177Z,962.3115
2023-05-03T10:53:02.284Z,962.3585
2023-05-03T10:54:03.368Z,962.3915
2023-05-03T10:55:04.691Z,962.4039
2023-05-03T10:56:05.563Z,962.3546
2023-05-03T10:57:06.660Z,962.2885
2023-05-03T10:58:07.758Z,962.2692
2023-05-03T10:59:08.822Z,962.2869
2023-05-03T11:00:09.970Z,962.3162
2023-05-03T11:01:11.128Z,962.3492
2023-05-03T11:02:12.143Z,962.3523
2023-05-03T11:03:13.236Z,962.3723
2023-05-03T11:04:14.354Z,962.3654
2023-05-03T11:05:15.413Z,962.3262
2023-05-03T11:06:16.538Z,962.3408
2023-05-03T11:07:17.588Z,962.3754
2023-05-03T11:08:18.711Z,962.4370
2023-05-03T11:09:19.781Z,962.4615
2023-05-03T11:10:20.857Z,962.4077
2023-05-03T11:11:21.981Z,962.3323
2023-05-03T11:12:23.067Z,962.3092
2023-05-03T11:13:24.135Z,962.3484
2023-05-03T11:14:25.250Z,962.3593
2023-05-03T11:15:26.324Z,962.3815
2023-05-03T11:16:27.471Z,962.3754
2023-05-03T11:17:28.497Z,962.3646
2023-05-03T11:18:29.605Z,962.3677
2023-05-03T11:19:30.683Z,962.3469
2023-05-03T11:20:31.769Z,962.3215
2023-05-03T11:21:32.906Z,962.3384
2023-05-03T11:22:33.964Z,962.3762
2023-05-03T11:23:35.079Z,962.3846
2023-05-03T11:24:36.142Z,962.3785
2023-05-03T11:25:37.243Z,962.3700
2023-05-03T11:26:38.336Z,962.3523
2023-05-03T11:27:39.448Z,962.3170
2023-05-03T11:28:40.526Z,962.2600
2023-05-03T11:29:41.654Z,962.1738
2023-05-03T11:30:42.730Z,962.1631
2023-05-03T11:31:43.886Z,962.1654
2023-05-03T11:32:44.986Z,962.2485
2023-05-03T11:33:47.987Z,962.2631
2023-05-03T11:34:47.088Z,962.2854
2023-05-03T11:35:48.211Z,962.3192
2023-05-03T11:36:49.315Z,962.2900
2023-05-03T11:37:50.357Z,962.2723
2023-05-03T11:38:51.450Z,962.2900
2023-05-03T11:39:52.547Z,962.3200
2023-05-03T11:40:53.628Z,962.3239
2023-05-03T11:41:54.743Z,962.3077
2023-05-03T11:42:55.819Z,962.2646
2023-05-03T11:44:07.914Z,962.2031
2023-05-03T11:44:59.040Z,962.1731
2023-05-03T11:45:59.153Z,962.1854
2023-05-03T11:47:00.321Z,962.1830
2023-05-03T11:48:01.408Z,962.2338
2023-05-03T11:49:02.373Z,962.2100
2023-05-03T11:50:03.458Z,962.1469
2023-05-03T11:51:04.575Z,962.1477
2023-05-03T11:52:05.663Z,962.1654
2023-05-03T11:53:06.752Z,962.1431
2023-05-03T11:54:21.062Z,962.1654
2023-05-03T11:55:09.927Z,962.1915
2023-05-03T11:56:10.013Z,962.1415
2023-05-03T11:57:11.142Z,962.1177